Time;durP1;ratioP1;P1;durP2;ratioP2;P2;SDS_P1;SDS_P2;PMS_P1;PMS_P2;Temp;Humidity;BMP_temperature;BMP_pressure;BME280_temperature;BME280_humidity;BME280_pressure;Samples;Min_cycle;Max_cycle;Signal;HPM_P1;HPM_P2
2022/11/26 00:00:15;;;;;;;1.42;0.75;;;;;;;16.25;93.78;102076.84;20728876;28;20049;-85
2022/11/26 00:10:23;;;;;;;1.05;0.52;;;;;;;16.07;93.77;102063.63;20728480;28;20402;-86
2022/11/26 00:20:29;;;;;;;1.48;0.70;;;;;;;16.25;93.54;102090.28;20789452;28;20123;-87
2022/11/26 00:30:30;;;;;;;1.77;0.90;;;;;;;16.12;93.56;102078.59;20743638;28;20391;-86
2022/11/26 00:40:32;;;;;;;0.90;0.60;;;;;;;16.14;93.38;102092.78;20785146;28;20417;-86
2022/11/26 00:50:39;;;;;;;1.05;0.68;;;;;;;16.24;93.31;102126.19;20783817;28;20097;-86
2022/11/26 01:00:41;;;;;;;0.95;0.60;;;;;;;16.18;93.21;102121.19;20757340;28;20171;-86
2022/11/26 01:10:42;;;;;;;1.52;0.60;;;;;;;16.30;93.20;102146.44;20777071;28;20061;-86
2022/11/26 01:20:45;;;;;;;1.48;0.77;;;;;;;16.30;92.98;102163.41;20781499;28;20137;-86
2022/11/26 01:30:46;;;;;;;0.93;0.60;;;;;;;16.30;93.06;102154.50;20762190;28;20521;-86
2022/11/26 01:41:08;;;;;;;1.30;0.60;;;;;;;16.22;92.91;102161.22;20761716;28;20049;-86
2022/11/26 01:51:11;;;;;;;1.00;0.70;;;;;;;16.21;92.86;102158.63;20766352;28;20156;-86
2022/11/26 02:01:12;;;;;;;0.95;0.52;;;;;;;16.28;92.76;102175.25;20779315;28;20049;-86
2022/11/26 02:11:20;;;;;;;1.42;0.70;;;;;;;16.26;92.62;102186.06;20757963;28;20103;-86
2022/11/26 02:21:26;;;;;;;1.17;0.60;;;;;;;16.27;92.37;102177.03;20775650;28;20037;-86
2022/11/26 02:31:46;;;;;;;1.08;0.47;;;;;;;16.28;92.41;102180.63;20747735;28;20144;-87
2022/11/26 02:41:50;;;;;;;0.80;0.60;;;;;;;16.12;92.34;102164.56;20765353;28;20310;-86
2022/11/26 02:51:53;;;;;;;0.88;0.57;;;;;;;16.04;92.16;102138.16;20780218;28;20128;-86
2022/11/26 03:02:20;;;;;;;0.93;0.55;;;;;;;15.56;92.10;102073.88;20748919;28;20099;-86
2022/11/26 03:12:21;;;;;;;0.73;0.55;;;;;;;16.16;91.79;102191.16;20774157;28;20049;-86
2022/11/26 03:22:23;;;;;;;1.30;1.02;;;;;;;16.16;92.16;102204.59;20805529;28;20057;-86
2022/11/26 03:32:25;;;;;;;1.10;0.80;;;;;;;16.26;91.82;102225.53;20750152;28;20581;-85
2022/11/26 03:42:26;;;;;;;1.17;0.55;;;;;;;16.25;91.74;102243.44;20781910;28;20136;-86
2022/11/26 03:52:28;;;;;;;0.70;0.50;;;;;;;16.27;91.67;102246.06;20776074;28;20144;-86
2022/11/26 04:02:29;;;;;;;0.70;0.50;;;;;;;16.25;91.58;102256.88;20784905;28;20053;-86
2022/11/26 04:12:31;;;;;;;2.28;0.68;;;;;;;16.26;91.47;102268.53;20793713;28;20520;-86
2022/11/26 04:22:32;;;;;;;0.65;0.50;;;;;;;16.26;91.44;102269.38;20799548;28;20084;-86
2022/11/26 04:32:35;;;;;;;0.40;0.40;;;;;;;16.26;91.47;102280.13;20792915;28;20061;-86
2022/11/26 04:42:37;;;;;;;0.80;0.60;;;;;;;16.16;91.09;102269.06;20786068;28;20498;-87
2022/11/26 04:52:38;;;;;;;0.70;0.52;;;;;;;16.16;90.97;102260.13;20804843;28;20053;-86
2022/11/26 05:02:40;;;;;;;0.63;0.40;;;;;;;16.26;91.01;102293.56;20801466;28;20507;-86
2022/11/26 05:12:41;;;;;;;1.45;0.70;;;;;;;16.25;90.91;102316.00;20794476;28;20096;-86
2022/11/26 05:22:43;;;;;;;1.00;0.57;;;;;;;15.73;90.81;102229.44;20802001;28;20050;-85
2022/11/26 05:32:44;;;;;;;0.82;0.55;;;;;;;15.95;90.69;102273.91;20800506;28;20387;-86
2022/11/26 05:42:46;;;;;;;1.10;0.40;;;;;;;16.19;90.63;102321.75;20878657;28;20055;-86
2022/11/26 05:52:47;;;;;;;0.80;0.40;;;;;;;16.26;90.48;102330.31;20811018;28;20411;-86
2022/11/26 06:02:49;;;;;;;1.25;0.60;;;;;;;16.16;90.13;102330.00;20795118;28;20413;-86
2022/11/26 06:12:50;;;;;;;0.30;0.30;;;;;;;16.25;90.29;102340.19;20802564;28;20051;-86
2022/11/26 06:22:52;;;;;;;1.17;0.52;;;;;;;16.15;90.29;102330.94;20785129;28;20061;-92
2022/11/26 06:32:53;;;;;;;0.40;0.40;;;;;;;16.07;90.22;102321.53;20769774;28;20064;-93
2022/11/26 06:42:55;;;;;;;1.30;0.45;;;;;;;16.25;90.18;102364.38;20737845;28;20057;-86
2022/11/26 06:52:56;;;;;;;0.55;0.40;;;;;;;16.24;90.13;102385.03;20773853;28;20045;-87
2022/11/26 07:02:58;;;;;;;0.60;0.40;;;;;;;15.44;89.98;102244.56;20749092;28;20050;-86
2022/11/26 07:12:59;;;;;;;0.70;0.43;;;;;;;15.94;90.55;102333.94;20740292;28;20080;-86
2022/11/26 07:23:01;;;;;;;0.77;0.60;;;;;;;16.21;91.82;102382.53;20774190;28;20057;-87
2022/11/26 07:33:03;;;;;;;0.98;0.70;;;;;;;16.29;91.85;102406.25;20772403;28;20422;-89
2022/11/26 07:43:04;;;;;;;1.17;0.40;;;;;;;16.28;92.03;102412.56;20759210;28;20056;-90
2022/11/26 07:53:06;;;;;;;4.80;1.30;;;;;;;16.30;93.82;102432.16;20733739;28;20059;-90
2022/11/26 08:03:08;;;;;;;4.43;1.50;;;;;;;16.20;100.00;102382.59;20742304;28;20199;-91
2022/11/26 08:13:09;;;;;;;3.13;1.40;;;;;;;15.84;99.56;102303.13;20741974;28;20045;-93
2022/11/26 08:23:10;;;;;;;4.97;1.40;;;;;;;16.72;97.82;102434.25;20749174;28;20136;-86
2022/11/26 08:33:12;;;;;;;3.90;1.20;;;;;;;16.68;96.61;102438.97;20741676;28;20513;-85
2022/11/26 08:43:14;;;;;;;3.42;1.40;;;;;;;16.61;96.17;102433.06;20773709;28;20166;-85
2022/11/26 08:53:15;;;;;;;3.80;1.15;;;;;;;16.56;95.86;102442.34;20754835;28;20064;-84
2022/11/26 09:03:17;;;;;;;2.85;1.10;;;;;;;16.38;95.65;102424.53;20761531;28;20402;-84
2022/11/26 09:13:18;;;;;;;2.67;1.00;;;;;;;16.26;95.29;102411.78;20744820;28;20061;-85
2022/11/26 09:23:21;;;;;;;2.35;1.25;;;;;;;16.44;95.37;102460.94;20774454;28;20045;-84
2022/11/26 09:33:23;;;;;;;1.63;0.90;;;;;;;16.44;95.21;102465.47;20760641;28;20089;-85
2022/11/26 09:43:56;;;;;;;4.03;1.20;;;;;;;16.42;94.85;102473.59;20773337;28;20049;-84
2022/11/26 09:54:00;;;;;;;3.08;1.35;;;;;;;16.42;94.78;102494.25;20759587;28;20148;-85
2022/11/26 10:04:06;;;;;;;1.92;1.08;;;;;;;16.38;94.65;102497.13;20737215;28;20271;-85
2022/11/26 10:14:39;;;;;;;1.42;0.90;;;;;;;16.40;94.50;102513.13;20733311;28;20049;-85
2022/11/26 10:24:41;;;;;;;1.80;1.33;;;;;;;16.40;94.35;102501.53;20752187;28;20085;-85
2022/11/26 10:34:48;;;;;;;2.90;1.30;;;;;;;16.40;94.26;102501.53;20737648;28;20080;-85
2022/11/26 10:44:51;;;;;;;1.35;0.90;;;;;;;16.41;94.10;102508.66;20753857;28;20049;-85
2022/11/26 10:55:24;;;;;;;2.20;1.15;;;;;;;16.40;93.84;102498.84;20766505;28;20041;-85
2022/11/26 11:05:26;;;;;;;1.77;1.10;;;;;;;16.40;93.70;102485.41;20735468;28;20409;-84
2022/11/26 11:15:31;;;;;;;1.98;1.20;;;;;;;16.16;93.58;102440.16;20741925;28;20056;-87
2022/11/26 11:25:37;;;;;;;2.70;1.50;;;;;;;16.38;93.67;102470.25;20743662;28;20072;-86
2022/11/26 11:35:39;;;;;;;1.52;1.20;;;;;;;16.40;93.54;102469.28;20749318;28;20583;-85
2022/11/26 11:45:43;;;;;;;2.33;1.20;;;;;;;16.40;93.33;102459.38;20754962;28;20045;-92
2022/11/26 11:56:10;;;;;;;2.50;1.13;;;;;;;16.41;93.34;102469.19;20743993;28;20107;-92
2022/11/26 12:06:15;;;;;;;1.77;1.20;;;;;;;16.41;93.16;102460.25;20761383;28;20137;-87
2022/11/26 12:16:19;;;;;;;1.50;1.13;;;;;;;16.16;93.00;102443.72;20756868;28;20617;-87
2022/11/26 12:26:20;;;;;;;2.67;1.65;;;;;;;16.41;93.20;102465.63;20757072;28;20870;-86
2022/11/26 12:36:27;;;;;;;2.47;1.52;;;;;;;16.40;92.88;102454.00;20779652;28;20534;-86
2022/11/26 12:47:13;;;;;;;2.17;1.42;;;;;;;16.40;92.83;102463.91;20758594;28;20061;-86
2022/11/26 12:57:29;;;;;;;2.58;1.52;;;;;;;16.15;92.73;102416.94;20768982;28;20129;-86
2022/11/26 13:07:44;;;;;;;;;;;;;;;16.40;92.90;102455.84;20756651;28;20108;-89
2022/11/26 13:17:47;;;;;;;2.92;1.77;;;;;;;16.38;92.74;102435.28;20754618;28;19921;-89
2022/11/26 13:27:57;;;;;;;3.10;1.60;;;;;;;16.38;92.77;102437.97;20759894;28;20045;-89
2022/11/26 13:38:18;;;;;;;2.63;1.90;;;;;;;16.23;92.72;102398.53;20776751;28;20049;-89
2022/11/26 13:48:30;;;;;;;2.83;1.65;;;;;;;16.11;92.69;102373.22;20740453;28;20653;-88
2022/11/26 13:58:39;;;;;;;2.45;1.85;;;;;;;16.37;92.69;102412.06;20771184;28;20223;-87
2022/11/26 14:08:45;;;;;;;2.28;2.03;;;;;;;15.94;92.58;102323.19;20757647;28;20049;-89
2022/11/26 14:18:52;;;;;;;2.90;1.98;;;;;;;16.36;92.49;102393.31;20750710;28;20057;-88
2022/11/26 14:29:00;;;;;;;2.45;2.22;;;;;;;15.91;92.41;102318.84;20778376;28;20406;-88
2022/11/26 14:39:11;;;;;;;3.38;1.60;;;;;;;16.36;92.41;102404.94;20763613;28;20049;-86
2022/11/26 14:49:19;;;;;;;2.33;1.80;;;;;;;16.36;92.38;102402.25;20762946;28;20057;-86
2022/11/26 14:59:21;;;;;;;3.08;1.80;;;;;;;16.36;92.19;102413.03;20767728;28;20049;-86
2022/11/26 15:09:24;;;;;;;2.28;1.50;;;;;;;16.37;92.35;102428.19;20761677;28;20140;-85
2022/11/26 15:19:30;;;;;;;2.78;2.00;;;;;;;16.14;92.18;102391.00;20758375;28;20124;-85
2022/11/26 15:29:35;;;;;;;2.70;1.83;;;;;;;16.16;92.07;102387.28;20741405;28;20048;-85
2022/11/26 15:39:37;;;;;;;2.00;1.77;;;;;;;16.33;91.96;102415.84;20729408;28;20414;-85
2022/11/26 15:49:39;;;;;;;4.15;2.38;;;;;;;16.13;92.04;102371.34;20766901;28;20516;-86
2022/11/26 15:59:44;;;;;;;2.70;1.90;;;;;;;16.17;91.86;102377.41;20757462;28;20049;-87
2022/11/26 16:09:48;;;;;;;3.47;1.90;;;;;;;16.35;91.96;102403.22;20768047;28;20056;-89
2022/11/26 16:19:52;;;;;;;3.75;2.10;;;;;;;16.36;91.84;102415.69;20756155;28;20045;-89
2022/11/26 16:29:54;;;;;;;3.05;2.20;;;;;;;16.35;91.81;102413.97;20775804;28;20056;-87
2022/11/26 16:40:03;;;;;;;3.08;1.75;;;;;;;16.35;91.79;102432.78;20761126;28;20060;-86
2022/11/26 16:50:06;;;;;;;2.60;1.88;;;;;;;16.34;91.53;102417.59;20722412;28;20296;-86
2022/11/26 17:00:20;;;;;;;2.30;1.73;;;;;;;16.11;91.52;102370.53;20750162;28;20076;-86
2022/11/26 17:10:24;;;;;;;2.05;1.65;;;;;;;16.33;91.59;102415.84;20761500;28;20054;-86
2022/11/26 17:20:26;;;;;;;2.33;1.88;;;;;;;16.33;91.61;102415.84;20745469;28;20461;-86
2022/11/26 17:30:27;;;;;;;2.10;1.67;;;;;;;16.33;91.74;102415.84;20753821;28;20057;-88
2022/11/26 17:40:29;;;;;;;3.00;1.60;;;;;;;15.67;91.80;102313.03;20754770;28;20367;-85
2022/11/26 17:50:31;;;;;;;2.80;1.90;;;;;;;16.32;91.78;102414.13;20769731;28;20445;-90
2022/11/26 18:00:33;;;;;;;2.28;1.50;;;;;;;16.18;91.90;102384.50;20762081;28;20133;-84
2022/11/26 18:10:38;;;;;;;4.00;1.70;;;;;;;16.33;91.94;102391.66;20757586;28;20049;-83
2022/11/26 18:20:41;;;;;;;2.78;1.80;;;;;;;16.27;92.02;102383.97;20813100;28;20107;-83
2022/11/26 18:30:43;;;;;;;2.55;1.75;;;;;;;16.31;91.96;102380.13;20798493;28;20064;-83
2022/11/26 18:40:45;;;;;;;2.28;1.70;;;;;;;16.32;91.83;102365.75;20770001;28;20077;-83
2022/11/26 18:50:55;;;;;;;2.25;1.83;;;;;;;16.05;91.85;102331.50;20793821;28;20046;-83
2022/11/26 19:00:57;;;;;;;3.85;1.80;;;;;;;16.31;91.92;102368.53;20771212;28;20050;-83
2022/11/26 19:10:59;;;;;;;2.20;1.38;;;;;;;16.08;91.81;102320.56;20780367;28;20061;-83
2022/11/26 19:21:01;;;;;;;2.38;2.17;;;;;;;16.11;91.70;102315.97;20789886;28;20143;-83
2022/11/26 19:31:05;;;;;;;3.55;1.52;;;;;;;16.30;91.80;102345.31;20788920;28;20469;-83
2022/11/26 19:41:07;;;;;;;1.80;1.30;;;;;;;16.29;91.70;102328.31;20767362;28;20054;-83
2022/11/26 19:51:10;;;;;;;2.28;1.58;;;;;;;16.29;91.52;102311.31;20784183;28;20050;-83
2022/11/26 20:01:14;;;;;;;2.05;1.60;;;;;;;16.29;91.62;102339.06;20789261;28;20045;-83
2022/11/26 20:11:16;;;;;;;2.67;1.23;;;;;;;16.29;91.63;102368.63;20789442;28;20072;-83
2022/11/26 20:21:24;;;;;;;2.58;1.48;;;;;;;16.04;91.64;102324.38;20773173;28;20132;-83
2022/11/26 20:31:25;;;;;;;2.00;1.42;;;;;;;16.29;91.39;102391.94;20773664;28;20123;-83
2022/11/26 20:41:28;;;;;;;2.60;1.45;;;;;;;16.29;91.34;102391.94;20794161;28;20136;-83
2022/11/26 20:51:29;;;;;;;2.10;1.27;;;;;;;16.27;91.23;102405.47;20792583;28;20045;-84
2022/11/26 21:01:31;;;;;;;2.20;1.45;;;;;;;16.27;91.48;102397.41;20801265;28;20713;-83
2022/11/26 21:11:33;;;;;;;1.60;1.20;;;;;;;16.10;90.96;102355.38;20799699;28;20095;-83
2022/11/26 21:21:34;;;;;;;2.08;1.20;;;;;;;16.27;91.02;102386.66;20792788;28;20441;-83
2022/11/26 21:31:37;;;;;;;2.47;1.40;;;;;;;16.27;90.96;102356.25;20798214;28;20099;-83
2022/11/26 21:41:38;;;;;;;2.45;1.80;;;;;;;16.08;91.00;102317.88;20797114;28;20046;-84
2022/11/26 21:51:40;;;;;;;1.70;1.10;;;;;;;16.16;90.94;102290.56;20798936;28;20107;-83
2022/11/26 22:01:41;;;;;;;1.55;1.00;;;;;;;16.26;90.76;102285.50;20788388;28;20046;-83
2022/11/26 22:11:44;;;;;;;2.17;1.10;;;;;;;16.20;90.60;102269.75;20794963;28;20041;-83
2022/11/26 22:21:45;;;;;;;1.50;1.10;;;;;;;16.25;90.40;102259.56;20794667;28;20037;-83
2022/11/26 22:31:49;;;;;;;0.95;0.82;;;;;;;16.26;90.61;102257.78;20794308;28;20099;-83
2022/11/26 22:41:50;;;;;;;1.75;1.30;;;;;;;16.26;90.76;102257.78;20792840;28;20041;-84
2022/11/26 22:51:52;;;;;;;2.58;1.10;;;;;;;16.27;90.68;102238.00;20779275;28;20063;-83
2022/11/26 23:01:54;;;;;;;1.75;1.00;;;;;;;16.26;90.50;102236.28;20795681;28;20052;-83
2022/11/26 23:11:55;;;;;;;2.05;1.40;;;;;;;16.26;90.54;102217.47;20794993;28;20052;-83
2022/11/26 23:21:57;;;;;;;1.67;0.95;;;;;;;16.25;90.35;102221.94;20794658;28;20057;-84
2022/11/26 23:31:58;;;;;;;1.73;0.80;;;;;;;16.26;90.27;102221.00;20793053;28;20052;-84
2022/11/26 23:42:00;;;;;;;1.65;1.20;;;;;;;16.26;90.32;102218.31;20793339;28;20520;-83
2022/11/26 23:52:02;;;;;;;1.42;1.02;;;;;;;16.25;90.18;102211.22;20771668;28;20453;-84
